createdAt,value
2023-03-03T00:00:53.402Z,23.50
2023-03-03T00:03:23.441Z,24.30
2023-03-03T00:05:53.366Z,23.57
2023-03-03T00:08:21.913Z,22.10
2023-03-03T00:10:49.599Z,21.60
2023-03-03T00:13:19.316Z,22.53
2023-03-03T00:15:47.743Z,20.03
2023-03-03T00:18:23.662Z,23.77
2023-03-03T00:20:55.150Z,22.03
2023-03-03T00:23:30.846Z,21.30
2023-03-03T00:25:59.450Z,22.50
2023-03-03T00:28:30.732Z,22.57
2023-03-03T00:31:00.023Z,21.93
2023-03-03T00:33:32.611Z,21.27
2023-03-03T00:36:31.624Z,23.83
2023-03-03T00:39:12.881Z,24.17
2023-03-03T00:41:40.963Z,22.70
2023-03-03T00:44:34.287Z,23.47
2023-03-03T00:47:13.507Z,22.20
2023-03-03T00:49:41.566Z,21.03
2023-03-03T00:52:17.185Z,21.93
2023-03-03T00:54:44.797Z,22.00
2023-03-03T00:57:13.610Z,23.63
2023-03-03T00:59:41.350Z,19.10
2023-03-03T01:02:08.854Z,22.03
2023-03-03T01:04:36.367Z,24.57
2023-03-03T01:07:04.246Z,23.00
2023-03-03T01:09:33.108Z,22.50
2023-03-03T01:12:00.795Z,25.17
2023-03-03T01:14:28.354Z,23.57
2023-03-03T01:16:55.911Z,23.80
2023-03-03T01:19:23.363Z,22.70
2023-03-03T01:21:52.258Z,25.60
2023-03-03T01:24:19.795Z,20.83
2023-03-03T01:26:48.629Z,23.73
2023-03-03T01:29:16.100Z,24.17
2023-03-03T01:31:43.603Z,23.97
2023-03-03T01:34:11.111Z,22.20
2023-03-03T01:36:38.664Z,21.83
2023-03-03T01:39:06.163Z,23.07
2023-03-03T01:41:34.253Z,22.73
2023-03-03T01:44:03.054Z,22.13
2023-03-03T01:46:46.178Z,21.20
2023-03-03T01:49:16.908Z,21.27
2023-03-03T01:51:50.062Z,20.97
2023-03-03T01:54:23.080Z,22.77
2023-03-03T01:56:52.911Z,22.13
2023-03-03T01:59:26.800Z,21.97
2023-03-03T02:01:54.625Z,22.90
2023-03-03T02:04:22.435Z,22.83
2023-03-03T02:06:55.662Z,23.70
2023-03-03T02:09:29.074Z,21.47
2023-03-03T02:12:00.951Z,22.90
2023-03-03T02:14:29.898Z,23.37
2023-03-03T02:16:58.081Z,22.23
2023-03-03T02:19:33.940Z,23.20
2023-03-03T02:22:03.143Z,26.03
2023-03-03T02:24:35.878Z,22.17
2023-03-03T02:27:04.881Z,22.60
2023-03-03T02:29:32.310Z,25.80
2023-03-03T02:31:59.989Z,25.43
2023-03-03T02:34:27.504Z,21.80
2023-03-03T02:36:55.074Z,22.57
2023-03-03T02:39:24.729Z,23.33
2023-03-03T02:41:56.669Z,24.10
2023-03-03T02:44:27.202Z,23.77
2023-03-03T02:46:56.104Z,23.90
2023-03-03T02:49:24.891Z,25.10
2023-03-03T02:51:52.455Z,26.10
2023-03-03T02:54:21.934Z,26.17
2023-03-03T02:56:49.819Z,22.10
2023-03-03T02:59:18.206Z,23.30
2023-03-03T03:01:47.989Z,25.30
2023-03-03T03:04:17.373Z,24.80
2023-03-03T03:06:45.937Z,26.77
2023-03-03T03:09:14.433Z,25.00
2023-03-03T03:11:42.772Z,25.87
2023-03-03T03:14:12.370Z,24.70
2023-03-03T03:16:40.514Z,28.03
2023-03-03T03:19:09.726Z,26.33
2023-03-03T03:21:37.286Z,24.83
2023-03-03T03:24:05.057Z,26.73
2023-03-03T03:26:32.487Z,31.40
2023-03-03T03:29:00.013Z,26.10
2023-03-03T03:31:27.485Z,26.23
2023-03-03T03:33:54.961Z,31.60
2023-03-03T03:36:23.839Z,24.73
2023-03-03T03:38:52.404Z,31.93
2023-03-03T03:41:19.876Z,26.17
2023-03-03T03:43:48.059Z,24.43
2023-03-03T03:46:15.628Z,25.97
2023-03-03T03:48:43.092Z,27.30
2023-03-03T03:51:11.954Z,28.47
2023-03-03T03:53:40.766Z,27.47
2023-03-03T03:56:08.989Z,24.03
2023-03-03T03:58:36.438Z,27.83
2023-03-03T04:01:05.279Z,25.57
2023-03-03T04:03:32.830Z,26.97
2023-03-03T04:06:00.392Z,25.63
2023-03-03T04:08:27.937Z,24.47
2023-03-03T04:10:56.788Z,22.80
2023-03-03T04:13:24.366Z,20.03
2023-03-03T04:15:51.882Z,24.13
2023-03-03T04:18:19.312Z,21.00
2023-03-03T04:20:46.943Z,23.07
2023-03-03T04:23:14.803Z,21.20
2023-03-03T04:25:42.330Z,27.10
2023-03-03T04:28:11.065Z,24.43
2023-03-03T04:30:38.517Z,24.13
2023-03-03T04:33:05.949Z,22.90
2023-03-03T04:35:33.421Z,26.40
2023-03-03T04:38:01.146Z,25.47
2023-03-03T04:40:28.881Z,24.50
2023-03-03T04:42:56.439Z,26.97
2023-03-03T04:45:25.190Z,27.17
2023-03-03T04:47:52.712Z,26.60
2023-03-03T04:50:20.835Z,26.83
2023-03-03T04:52:48.372Z,23.30
2023-03-03T04:55:16.714Z,28.17
2023-03-03T04:57:44.373Z,23.07
2023-03-03T05:00:14.038Z,25.13
2023-03-03T05:02:43.424Z,22.80
2023-03-03T05:05:11.633Z,25.93
2023-03-03T05:07:39.066Z,24.20
2023-03-03T05:10:07.929Z,27.93
2023-03-03T05:12:35.422Z,33.10
2023-03-03T05:15:02.896Z,26.57
2023-03-03T05:17:30.417Z,27.93
2023-03-03T05:19:59.251Z,29.70
2023-03-03T05:22:26.847Z,28.07
2023-03-03T05:24:54.263Z,32.90
2023-03-03T05:27:21.784Z,32.60
2023-03-03T05:29:49.289Z,35.37
2023-03-03T05:32:16.953Z,37.43
2023-03-03T05:34:44.504Z,36.53
2023-03-03T05:37:13.396Z,33.53
2023-03-03T05:39:40.982Z,43.23
2023-03-03T05:42:08.453Z,32.43
2023-03-03T05:44:35.934Z,32.60
2023-03-03T05:47:03.478Z,28.70
2023-03-03T05:49:30.938Z,33.07
2023-03-03T05:51:59.263Z,25.47
2023-03-03T05:54:28.106Z,27.97
2023-03-03T05:56:57.302Z,25.07
2023-03-03T05:59:25.310Z,24.53
2023-03-03T06:01:52.925Z,22.00
2023-03-03T06:04:20.411Z,25.20
2023-03-03T06:06:47.863Z,26.07
2023-03-03T06:09:15.696Z,20.27
2023-03-03T06:11:44.463Z,21.03
2023-03-03T06:14:11.937Z,17.57
2023-03-03T06:16:39.502Z,17.50
2023-03-03T06:19:07.086Z,19.57
2023-03-03T06:21:34.519Z,20.20
2023-03-03T06:24:02.024Z,22.00
2023-03-03T06:26:29.730Z,28.73
2023-03-03T06:28:58.558Z,16.30
2023-03-03T06:31:26.124Z,21.97
2023-03-03T06:33:53.706Z,37.17
2023-03-03T06:36:21.801Z,24.30
2023-03-03T06:38:49.253Z,20.07
2023-03-03T06:41:16.731Z,22.83
2023-03-03T06:43:44.219Z,20.57
2023-03-03T06:46:13.025Z,20.60
2023-03-03T06:48:40.781Z,27.83
2023-03-03T06:51:21.520Z,25.33
2023-03-03T06:53:50.000Z,25.27
2023-03-03T06:56:18.616Z,30.20
2023-03-03T06:58:46.168Z,24.03
2023-03-03T07:01:18.251Z,35.47
2023-03-03T07:03:46.635Z,32.83
2023-03-03T07:06:23.379Z,31.17
2023-03-03T07:08:51.147Z,28.63
2023-03-03T07:11:20.533Z,25.07
2023-03-03T07:13:50.094Z,23.97
2023-03-03T07:16:20.758Z,27.17
2023-03-03T07:18:52.058Z,30.97
2023-03-03T07:21:21.777Z,25.77
2023-03-03T07:23:51.013Z,25.13
2023-03-03T07:26:22.651Z,28.47
2023-03-03T07:28:54.739Z,34.57
2023-03-03T07:31:40.227Z,29.33
2023-03-03T07:34:20.855Z,25.40
2023-03-03T07:36:49.657Z,28.00
2023-03-03T07:39:29.339Z,30.90
2023-03-03T07:42:03.838Z,27.47
2023-03-03T07:44:36.002Z,23.90
2023-03-03T07:47:16.541Z,25.87
2023-03-03T07:49:44.012Z,27.27
2023-03-03T07:52:25.570Z,33.13
2023-03-03T07:54:54.269Z,23.83
2023-03-03T07:57:25.933Z,23.93
2023-03-03T07:59:55.838Z,19.90
2023-03-03T08:02:55.332Z,18.60
2023-03-03T08:05:31.296Z,26.43
2023-03-03T08:08:16.134Z,23.07
2023-03-03T08:10:47.770Z,22.70
2023-03-03T08:13:19.862Z,24.00
2023-03-03T08:15:49.944Z,28.10
2023-03-03T08:18:25.044Z,25.43
2023-03-03T08:20:55.451Z,26.67
2023-03-03T08:23:23.454Z,23.57
2023-03-03T08:25:52.469Z,25.87
2023-03-03T08:28:21.191Z,21.37
2023-03-03T08:30:49.179Z,22.70
2023-03-03T08:33:17.572Z,28.60
2023-03-03T08:35:46.735Z,23.73
2023-03-03T08:38:16.307Z,18.70
2023-03-03T08:40:44.583Z,20.43
2023-03-03T08:43:16.949Z,15.20
2023-03-03T08:45:45.979Z,18.13
2023-03-03T08:48:13.965Z,19.60
2023-03-03T08:50:42.089Z,16.20
2023-03-03T08:53:11.532Z,13.30
2023-03-03T08:55:39.189Z,14.40
2023-03-03T08:58:07.190Z,20.20
2023-03-03T09:00:35.542Z,17.10
2023-03-03T09:03:03.547Z,16.10
2023-03-03T09:05:31.778Z,17.23
2023-03-03T09:07:59.380Z,17.77
2023-03-03T09:10:31.817Z,30.13
2023-03-03T09:13:03.552Z,30.00
2023-03-03T09:15:33.545Z,37.60
2023-03-03T09:18:11.637Z,30.53
2023-03-03T09:20:41.392Z,22.97
2023-03-03T09:23:29.893Z,20.60
2023-03-03T09:26:00.114Z,25.77
2023-03-03T09:28:30.014Z,15.77
2023-03-03T09:31:00.527Z,15.37
2023-03-03T09:33:33.404Z,15.60
2023-03-03T09:36:07.034Z,13.67
2023-03-03T09:38:35.485Z,16.83
2023-03-03T09:41:33.063Z,16.07
2023-03-03T09:44:17.541Z,15.63
2023-03-03T09:46:57.884Z,23.47
2023-03-03T09:49:33.135Z,30.90
2023-03-03T09:52:23.674Z,17.73
2023-03-03T09:55:02.118Z,15.67
2023-03-03T09:58:04.450Z,22.97
2023-03-03T10:00:52.094Z,27.13
2023-03-03T10:03:54.695Z,22.70
2023-03-03T10:06:28.938Z,16.60
2023-03-03T10:09:10.062Z,15.80
2023-03-03T10:11:42.875Z,15.67
2023-03-03T10:14:30.615Z,16.70
2023-03-03T10:17:15.941Z,26.33
2023-03-03T10:19:58.353Z,24.90
2023-03-03T10:22:35.926Z,23.97
2023-03-03T10:25:15.068Z,26.87
2023-03-03T10:27:54.470Z,28.60
2023-03-03T10:30:39.867Z,31.30
2023-03-03T10:33:22.580Z,20.52
2023-03-03T10:36:18.892Z,21.40
2023-03-03T10:38:56.337Z,22.10
2023-03-03T10:41:44.636Z,24.27
2023-03-03T10:44:33.251Z,27.77
2023-03-03T10:47:22.510Z,24.70
2023-03-03T10:50:02.509Z,23.87
2023-03-03T10:52:38.785Z,25.20
2023-03-03T10:55:39.722Z,36.90
2023-03-03T10:58:20.517Z,36.87
2023-03-03T11:00:53.444Z,26.63
2023-03-03T11:03:50.866Z,23.80
2023-03-03T11:06:23.270Z,23.53
2023-03-03T11:08:54.837Z,22.93
2023-03-03T11:11:33.669Z,22.80
2023-03-03T11:14:07.264Z,20.10
2023-03-03T11:16:43.068Z,20.90
2023-03-03T11:19:30.162Z,26.60
2023-03-03T11:22:08.381Z,32.90
2023-03-03T11:24:51.107Z,27.23
2023-03-03T11:27:34.577Z,33.83
2023-03-03T11:30:17.795Z,31.03
2023-03-03T11:32:52.764Z,26.53
2023-03-03T11:35:26.046Z,26.03
2023-03-03T11:38:13.638Z,24.83
2023-03-03T11:40:48.539Z,24.60
2023-03-03T11:43:35.699Z,25.37
2023-03-03T11:46:08.844Z,26.10
2023-03-03T11:48:44.735Z,25.03
2023-03-03T11:51:16.864Z,21.73
2023-03-03T11:53:58.326Z,25.10
2023-03-03T11:56:28.964Z,21.07
2023-03-03T11:59:08.515Z,23.23
2023-03-03T12:01:43.713Z,28.63
2023-03-03T12:04:16.830Z,26.97
2023-03-03T12:07:12.862Z,38.47
2023-03-03T12:09:54.063Z,28.83
2023-03-03T12:12:24.892Z,36.43
2023-03-03T12:15:05.523Z,30.57
2023-03-03T12:17:52.075Z,34.17
2023-03-03T12:20:26.694Z,38.37
2023-03-03T12:23:08.966Z,32.97
2023-03-03T12:25:40.975Z,43.07
2023-03-03T12:28:12.838Z,47.30
2023-03-03T12:31:10.910Z,47.10
2023-03-03T12:33:53.031Z,37.83
2023-03-03T12:36:37.862Z,31.50
2023-03-03T12:39:13.533Z,37.43
2023-03-03T12:41:47.773Z,34.80
2023-03-03T12:44:21.966Z,27.43
2023-03-03T12:47:01.880Z,33.40
2023-03-03T12:49:43.443Z,31.03
2023-03-03T12:52:24.197Z,32.60
2023-03-03T12:55:05.014Z,34.30
2023-03-03T12:57:40.263Z,38.50
2023-03-03T13:00:28.744Z,36.30
2023-03-03T13:03:05.187Z,33.90
2023-03-03T13:05:45.910Z,29.43
2023-03-03T13:08:43.405Z,28.83
2023-03-03T13:11:28.530Z,30.27
2023-03-03T13:14:05.268Z,24.50
2023-03-03T13:16:41.587Z,23.93
2023-03-03T13:19:12.382Z,24.33
2023-03-03T13:21:47.148Z,26.23
2023-03-03T13:24:21.879Z,22.93
2023-03-03T13:26:55.402Z,24.50
2023-03-03T13:29:28.275Z,23.67
2023-03-03T13:31:58.108Z,31.20
2023-03-03T13:34:39.002Z,31.43
2023-03-03T13:37:13.472Z,36.30
2023-03-03T13:39:50.867Z,35.00
2023-03-03T13:42:25.529Z,30.90
2023-03-03T13:44:53.892Z,27.83
2023-03-03T13:47:29.729Z,25.43
2023-03-03T13:50:20.960Z,25.77
2023-03-03T13:53:02.340Z,23.77
2023-03-03T13:55:34.819Z,28.20
2023-03-03T13:58:13.208Z,26.83
2023-03-03T14:00:52.696Z,26.97
2023-03-03T14:03:52.512Z,22.47
2023-03-03T14:06:22.706Z,21.80
2023-03-03T14:09:23.542Z,20.47
2023-03-03T14:11:58.127Z,25.60
2023-03-03T14:14:38.922Z,21.20
2023-03-03T14:17:14.674Z,27.23
2023-03-03T14:19:45.717Z,22.03
2023-03-03T14:22:23.668Z,24.47
2023-03-03T14:25:00.507Z,23.37
2023-03-03T14:27:34.389Z,24.00
2023-03-03T14:30:26.975Z,21.67
2023-03-03T14:33:03.603Z,22.10
2023-03-03T14:35:34.383Z,24.03
2023-03-03T14:38:03.745Z,29.93
2023-03-03T14:40:33.447Z,28.17
2023-03-03T14:43:02.306Z,25.63
2023-03-03T14:45:40.781Z,30.87
2023-03-03T14:48:16.346Z,31.23
2023-03-03T14:50:49.852Z,27.73
2023-03-03T14:53:23.964Z,23.93
2023-03-03T14:55:53.346Z,24.43
2023-03-03T14:58:36.139Z,25.27
2023-03-03T15:01:16.595Z,23.97
2023-03-03T15:03:52.509Z,25.70
2023-03-03T15:06:32.760Z,25.00
2023-03-03T15:09:22.785Z,22.60
2023-03-03T15:11:53.259Z,20.60
2023-03-03T15:14:23.770Z,24.67
2023-03-03T15:16:52.827Z,22.17
2023-03-03T15:19:38.663Z,23.00
2023-03-03T15:22:16.047Z,25.10
2023-03-03T15:24:51.049Z,26.70
2023-03-03T15:27:25.776Z,20.47
2023-03-03T15:30:05.050Z,18.47
2023-03-03T15:32:43.348Z,20.17
2023-03-03T15:35:26.011Z,21.73
2023-03-03T15:37:59.600Z,19.07
2023-03-03T15:40:30.381Z,24.20
2023-03-03T15:43:10.348Z,19.87
2023-03-03T15:45:46.079Z,21.57
2023-03-03T15:48:34.974Z,19.73
2023-03-03T15:51:11.042Z,19.60
2023-03-03T15:54:02.455Z,18.77
2023-03-03T15:56:38.132Z,23.43
2023-03-03T15:59:30.686Z,20.23
2023-03-03T16:02:09.230Z,17.60
2023-03-03T16:04:45.054Z,18.93
2023-03-03T16:07:24.458Z,21.07
2023-03-03T16:10:00.839Z,17.30
2023-03-03T16:12:40.574Z,21.53
2023-03-03T16:15:22.940Z,17.33
2023-03-03T16:17:58.878Z,16.90
2023-03-03T16:20:34.283Z,19.73
2023-03-03T16:23:28.407Z,18.40
2023-03-03T16:26:05.501Z,19.77
2023-03-03T16:28:44.405Z,20.10
2023-03-03T16:31:18.148Z,18.63
2023-03-03T16:33:56.892Z,17.60
2023-03-03T16:36:33.210Z,19.47
2023-03-03T16:39:06.139Z,21.10
2023-03-03T16:41:44.227Z,22.47
2023-03-03T16:44:31.207Z,19.67
2023-03-03T16:47:11.854Z,17.30
2023-03-03T16:49:49.822Z,22.07
2023-03-03T16:52:25.476Z,22.80
2023-03-03T16:54:58.212Z,20.77
2023-03-03T16:57:34.098Z,20.10
2023-03-03T17:00:08.954Z,20.03
2023-03-03T17:02:50.065Z,22.37
2023-03-03T17:05:27.311Z,22.17
2023-03-03T17:08:08.528Z,22.47
2023-03-03T17:10:43.029Z,19.47
2023-03-03T17:13:30.051Z,19.77
2023-03-03T17:16:14.223Z,20.07
2023-03-03T17:18:53.524Z,21.10
2023-03-03T17:21:28.898Z,21.60
2023-03-03T17:24:07.257Z,26.57
2023-03-03T17:26:51.354Z,21.97
2023-03-03T17:29:46.672Z,24.10
2023-03-03T17:32:28.898Z,25.23
2023-03-03T17:35:15.483Z,27.80
2023-03-03T17:37:51.299Z,22.90
2023-03-03T17:40:36.939Z,22.63
2023-03-03T17:43:10.206Z,23.33
2023-03-03T17:45:42.283Z,23.77
2023-03-03T17:48:53.927Z,22.61
2023-03-03T17:51:37.297Z,22.90
2023-03-03T17:54:29.092Z,20.87
2023-03-03T17:57:15.111Z,22.07
2023-03-03T17:59:56.919Z,22.47
2023-03-03T18:02:46.426Z,19.57
2023-03-03T18:05:46.385Z,22.20
2023-03-03T18:08:28.956Z,22.03
2023-03-03T18:11:11.425Z,21.97
2023-03-03T18:14:04.616Z,20.53
2023-03-03T18:16:47.769Z,49.97
2023-03-03T18:19:46.533Z,23.67
2023-03-03T18:22:19.570Z,21.53
2023-03-03T18:24:56.981Z,21.53
2023-03-03T18:27:34.293Z,22.67
2023-03-03T18:30:25.161Z,22.07
2023-03-03T18:33:12.708Z,34.53
2023-03-03T18:35:44.099Z,43.30
2023-03-03T18:38:30.287Z,23.47
2023-03-03T18:40:59.920Z,26.57
2023-03-03T18:43:52.102Z,23.50
2023-03-03T18:46:50.376Z,31.77
2023-03-03T18:49:18.477Z,21.67
2023-03-03T18:51:53.416Z,20.43
2023-03-03T18:54:31.287Z,25.80
2023-03-03T18:57:17.723Z,26.20
2023-03-03T19:00:10.763Z,27.30
2023-03-03T19:02:49.673Z,38.97
2023-03-03T19:05:24.295Z,24.33
2023-03-03T19:07:57.542Z,23.30
2023-03-03T19:10:48.893Z,24.57
2023-03-03T19:13:53.057Z,25.33
2023-03-03T19:16:36.864Z,26.90
2023-03-03T19:19:14.961Z,22.10
2023-03-03T19:21:43.792Z,63.33
2023-03-03T19:24:34.569Z,38.87
2023-03-03T19:27:16.252Z,33.93
2023-03-03T19:30:22.822Z,43.33
2023-03-03T19:33:10.020Z,29.80
2023-03-03T19:35:54.595Z,55.90
2023-03-03T19:38:32.301Z,84.10
2023-03-03T19:41:08.954Z,48.90
2023-03-03T19:43:47.062Z,37.90
2023-03-03T19:46:41.405Z,94.70
2023-03-03T19:49:18.209Z,28.03
2023-03-03T19:51:53.427Z,30.40
2023-03-03T19:54:37.332Z,27.07
2023-03-03T19:57:12.321Z,30.63
2023-03-03T19:59:46.528Z,21.57
2023-03-03T20:02:31.525Z,23.33
2023-03-03T20:05:08.099Z,30.07
2023-03-03T20:07:45.320Z,28.43
2023-03-03T20:10:32.839Z,24.40
2023-03-03T20:13:12.075Z,28.30
2023-03-03T20:15:48.333Z,24.80
2023-03-03T20:18:35.000Z,22.63
2023-03-03T20:21:09.059Z,20.03
2023-03-03T20:23:51.023Z,24.83
2023-03-03T20:26:27.209Z,17.70
2023-03-03T20:29:15.785Z,19.97
2023-03-03T20:31:50.972Z,15.77
2023-03-03T20:34:28.599Z,14.17
2023-03-03T20:37:01.435Z,21.27
2023-03-03T20:39:41.440Z,12.80
2023-03-03T20:42:19.243Z,13.03
2023-03-03T20:45:01.771Z,16.83
2023-03-03T20:47:39.241Z,14.60
2023-03-03T20:50:16.810Z,12.23
2023-03-03T20:52:55.812Z,14.87
2023-03-03T20:55:35.005Z,13.07
2023-03-03T20:58:08.430Z,14.73
2023-03-03T21:00:44.365Z,17.20
2023-03-03T21:03:19.407Z,17.47
2023-03-03T21:05:58.926Z,18.30
2023-03-03T21:08:48.385Z,18.93
2023-03-03T21:11:19.079Z,16.87
2023-03-03T21:13:48.062Z,17.40
2023-03-03T21:16:31.213Z,16.53
2023-03-03T21:19:00.200Z,15.37
2023-03-03T21:21:30.045Z,17.70
2023-03-03T21:23:59.074Z,19.20
2023-03-03T21:26:51.871Z,17.20
2023-03-03T21:29:21.104Z,19.10
2023-03-03T21:31:49.994Z,18.00
2023-03-03T21:34:25.793Z,17.90
2023-03-03T21:36:54.131Z,19.37
2023-03-03T21:39:24.972Z,20.03
2023-03-03T21:41:56.281Z,21.00
2023-03-03T21:44:41.490Z,21.60
2023-03-03T21:47:10.686Z,18.27
2023-03-03T21:49:42.461Z,21.23
2023-03-03T21:52:10.400Z,19.77
2023-03-03T21:54:37.888Z,18.80
2023-03-03T21:57:06.690Z,21.53
2023-03-03T21:59:34.163Z,19.13
2023-03-03T22:02:01.729Z,11.90
2023-03-03T22:04:29.656Z,11.67
2023-03-03T22:06:57.553Z,14.30
2023-03-03T22:09:25.035Z,14.47
2023-03-03T22:11:52.505Z,14.30
2023-03-03T22:14:21.306Z,14.30
2023-03-03T22:16:48.740Z,11.13
2023-03-03T22:19:16.356Z,11.57
2023-03-03T22:21:43.797Z,11.97
2023-03-03T22:24:11.255Z,12.53
2023-03-03T22:26:38.719Z,11.60
2023-03-03T22:29:06.600Z,10.37
2023-03-03T22:31:35.589Z,13.20
2023-03-03T22:34:03.271Z,13.17
2023-03-03T22:36:31.265Z,11.43
2023-03-03T22:38:58.947Z,10.53
2023-03-03T22:41:26.464Z,16.00
2023-03-03T22:43:53.888Z,10.40
2023-03-03T22:46:21.426Z,16.93
2023-03-03T22:48:50.371Z,23.37
2023-03-03T22:51:21.987Z,24.17
2023-03-03T22:53:49.535Z,25.40
2023-03-03T22:56:16.964Z,31.27
2023-03-03T22:58:44.411Z,25.67
2023-03-03T23:01:11.905Z,29.43
2023-03-03T23:03:39.474Z,34.80
2023-03-03T23:06:08.680Z,34.67
2023-03-03T23:08:36.097Z,43.47
2023-03-03T23:11:03.774Z,29.93
2023-03-03T23:13:31.782Z,32.43
2023-03-03T23:16:00.321Z,30.53
2023-03-03T23:18:28.411Z,35.77
2023-03-03T23:20:56.179Z,43.83
2023-03-03T23:23:25.312Z,38.40
2023-03-03T23:25:52.761Z,32.07
2023-03-03T23:28:20.238Z,39.97
2023-03-03T23:30:47.654Z,43.43
2023-03-03T23:33:15.274Z,34.73
2023-03-03T23:35:45.127Z,43.27
2023-03-03T23:38:15.430Z,36.47
2023-03-03T23:40:46.576Z,37.93
2023-03-03T23:43:14.123Z,44.70
2023-03-03T23:45:41.766Z,38.93
2023-03-03T23:48:09.759Z,38.57
2023-03-03T23:50:38.013Z,37.87
2023-03-03T23:53:05.607Z,39.47
2023-03-03T23:55:33.107Z,38.63
2023-03-03T23:58:01.985Z,48.57
